sensor_id;sensor_type;location;lat;lon;timestamp;temperature;humidity
12421;DHT22;6275;43.688;1.408;2022-09-09T00:00:49;17.20;99.90
12421;DHT22;6275;43.688;1.408;2022-09-09T00:03:23;17.20;99.90
12421;DHT22;6275;43.688;1.408;2022-09-09T00:06:11;17.10;99.90
12421;DHT22;6275;43.688;1.408;2022-09-09T00:11:24;17.00;99.90
12421;DHT22;6275;43.688;1.408;2022-09-09T00:13:59;17.10;99.90
12421;DHT22;6275;43.688;1.408;2022-09-09T00:16:32;17.00;99.90
12421;DHT22;6275;43.688;1.408;2022-09-09T00:19:31;16.90;99.90
12421;DHT22;6275;43.688;1.408;2022-09-09T00:22:17;16.80;99.90
12421;DHT22;6275;43.688;1.408;2022-09-09T00:24:58;16.80;99.90
12421;DHT22;6275;43.688;1.408;2022-09-09T00:32:47;16.40;99.90
12421;DHT22;6275;43.688;1.408;2022-09-09T00:35:29;16.50;99.90
12421;DHT22;6275;43.688;1.408;2022-09-09T00:38:00;16.30;99.90
12421;DHT22;6275;43.688;1.408;2022-09-09T00:40:39;16.50;99.90
12421;DHT22;6275;43.688;1.408;2022-09-09T00:43:30;16.60;99.90
12421;DHT22;6275;43.688;1.408;2022-09-09T00:56:35;16.90;99.90
12421;DHT22;6275;43.688;1.408;2022-09-09T00:59:47;16.90;99.90
12421;DHT22;6275;43.688;1.408;2022-09-09T01:02:39;16.80;99.90
12421;DHT22;6275;43.688;1.408;2022-09-09T01:05:20;16.80;99.90
12421;DHT22;6275;43.688;1.408;2022-09-09T01:07:50;16.50;99.90
12421;DHT22;6275;43.688;1.408;2022-09-09T01:10:50;16.30;99.90
12421;DHT22;6275;43.688;1.408;2022-09-09T01:13:36;16.30;99.90
12421;DHT22;6275;43.688;1.408;2022-09-09T01:16:06;16.50;99.90
12421;DHT22;6275;43.688;1.408;2022-09-09T01:18:44;16.70;99.90
12421;DHT22;6275;43.688;1.408;2022-09-09T01:27:02;16.90;99.90
12421;DHT22;6275;43.688;1.408;2022-09-09T01:29:30;16.90;99.90
12421;DHT22;6275;43.688;1.408;2022-09-09T01:34:52;16.90;99.90
12421;DHT22;6275;43.688;1.408;2022-09-09T01:37:19;16.90;99.90
12421;DHT22;6275;43.688;1.408;2022-09-09T01:39:46;16.90;99.90
12421;DHT22;6275;43.688;1.408;2022-09-09T01:42:16;16.90;99.90
12421;DHT22;6275;43.688;1.408;2022-09-09T01:44:43;16.90;99.90
12421;DHT22;6275;43.688;1.408;2022-09-09T01:47:10;16.90;99.90
12421;DHT22;6275;43.688;1.408;2022-09-09T02:04:23;16.90;99.90
12421;DHT22;6275;43.688;1.408;2022-09-09T02:06:54;16.90;99.90
12421;DHT22;6275;43.688;1.408;2022-09-09T02:09:24;16.80;99.90
12421;DHT22;6275;43.688;1.408;2022-09-09T02:12:05;16.70;99.90
12421;DHT22;6275;43.688;1.408;2022-09-09T02:14:41;16.60;99.90
12421;DHT22;6275;43.688;1.408;2022-09-09T02:17:16;16.70;99.90
12421;DHT22;6275;43.688;1.408;2022-09-09T02:19:49;16.70;99.90
12421;DHT22;6275;43.688;1.408;2022-09-09T02:22:20;16.80;99.90
12421;DHT22;6275;43.688;1.408;2022-09-09T02:24:49;16.70;99.90
12421;DHT22;6275;43.688;1.408;2022-09-09T02:27:19;16.60;99.90
12421;DHT22;6275;43.688;1.408;2022-09-09T02:29:47;16.60;99.90
12421;DHT22;6275;43.688;1.408;2022-09-09T02:32:24;16.70;99.90
12421;DHT22;6275;43.688;1.408;2022-09-09T02:34:59;16.70;99.90
12421;DHT22;6275;43.688;1.408;2022-09-09T02:37:31;16.60;99.90
12421;DHT22;6275;43.688;1.408;2022-09-09T02:40:00;16.60;99.90
12421;DHT22;6275;43.688;1.408;2022-09-09T02:42:28;16.60;99.90
12421;DHT22;6275;43.688;1.408;2022-09-09T02:44:55;16.70;99.90
12421;DHT22;6275;43.688;1.408;2022-09-09T02:47:29;16.70;99.90
12421;DHT22;6275;43.688;1.408;2022-09-09T02:53:16;16.70;99.90
12421;DHT22;6275;43.688;1.408;2022-09-09T02:55:46;16.70;99.90
12421;DHT22;6275;43.688;1.408;2022-09-09T02:58:17;16.70;99.90
12421;DHT22;6275;43.688;1.408;2022-09-09T03:00:49;16.80;99.90
12421;DHT22;6275;43.688;1.408;2022-09-09T03:03:18;16.90;99.90
12421;DHT22;6275;43.688;1.408;2022-09-09T03:05:46;16.90;99.90
12421;DHT22;6275;43.688;1.408;2022-09-09T03:08:13;16.90;99.90
12421;DHT22;6275;43.688;1.408;2022-09-09T03:10:40;17.00;99.90
12421;DHT22;6275;43.688;1.408;2022-09-09T03:13:07;17.10;99.90
12421;DHT22;6275;43.688;1.408;2022-09-09T03:15:34;17.20;99.90
12421;DHT22;6275;43.688;1.408;2022-09-09T03:18:02;17.30;99.90
12421;DHT22;6275;43.688;1.408;2022-09-09T03:20:30;17.30;99.90
12421;DHT22;6275;43.688;1.408;2022-09-09T03:22:58;17.40;99.90
12421;DHT22;6275;43.688;1.408;2022-09-09T03:25:26;17.40;99.90
12421;DHT22;6275;43.688;1.408;2022-09-09T03:27:54;17.40;99.90
12421;DHT22;6275;43.688;1.408;2022-09-09T03:30:22;17.40;99.90
12421;DHT22;6275;43.688;1.408;2022-09-09T03:32:50;17.40;99.90
12421;DHT22;6275;43.688;1.408;2022-09-09T03:35:17;17.40;99.90
12421;DHT22;6275;43.688;1.408;2022-09-09T03:37:44;17.40;99.90
12421;DHT22;6275;43.688;1.408;2022-09-09T03:40:11;17.40;99.90
12421;DHT22;6275;43.688;1.408;2022-09-09T03:42:39;17.30;99.90
12421;DHT22;6275;43.688;1.408;2022-09-09T03:45:08;17.30;99.90
12421;DHT22;6275;43.688;1.408;2022-09-09T03:47:36;17.30;99.90
12421;DHT22;6275;43.688;1.408;2022-09-09T03:50:05;17.20;99.90
12421;DHT22;6275;43.688;1.408;2022-09-09T03:52:39;17.10;99.90
12421;DHT22;6275;43.688;1.408;2022-09-09T03:55:08;17.00;99.90
12421;DHT22;6275;43.688;1.408;2022-09-09T03:57:35;16.90;99.90
12421;DHT22;6275;43.688;1.408;2022-09-09T04:00:07;16.80;99.90
12421;DHT22;6275;43.688;1.408;2022-09-09T04:02:34;16.70;99.90
12421;DHT22;6275;43.688;1.408;2022-09-09T04:05:01;16.70;99.90
12421;DHT22;6275;43.688;1.408;2022-09-09T04:07:28;16.60;99.90
12421;DHT22;6275;43.688;1.408;2022-09-09T04:09:55;16.50;99.90
12421;DHT22;6275;43.688;1.408;2022-09-09T04:12:22;16.50;99.90
12421;DHT22;6275;43.688;1.408;2022-09-09T04:14:49;16.50;99.90
12421;DHT22;6275;43.688;1.408;2022-09-09T04:17:16;16.40;99.90
12421;DHT22;6275;43.688;1.408;2022-09-09T04:19:43;16.30;99.90
12421;DHT22;6275;43.688;1.408;2022-09-09T04:22:10;16.30;99.90
12421;DHT22;6275;43.688;1.408;2022-09-09T04:24:37;16.30;99.90
12421;DHT22;6275;43.688;1.408;2022-09-09T04:27:04;16.30;99.90
12421;DHT22;6275;43.688;1.408;2022-09-09T04:29:31;16.20;99.90
12421;DHT22;6275;43.688;1.408;2022-09-09T04:31:58;16.20;99.90
12421;DHT22;6275;43.688;1.408;2022-09-09T04:34:25;16.20;99.90
12421;DHT22;6275;43.688;1.408;2022-09-09T04:36:52;16.10;99.90
12421;DHT22;6275;43.688;1.408;2022-09-09T04:39:19;16.10;99.90
12421;DHT22;6275;43.688;1.408;2022-09-09T04:41:46;16.00;99.90
12421;DHT22;6275;43.688;1.408;2022-09-09T04:44:14;15.90;99.90
12421;DHT22;6275;43.688;1.408;2022-09-09T04:46:40;15.90;99.90
12421;DHT22;6275;43.688;1.408;2022-09-09T04:49:08;15.90;99.90
12421;DHT22;6275;43.688;1.408;2022-09-09T04:51:40;15.90;99.90
12421;DHT22;6275;43.688;1.408;2022-09-09T04:54:07;15.80;99.90
12421;DHT22;6275;43.688;1.408;2022-09-09T04:56:34;15.70;99.90
12421;DHT22;6275;43.688;1.408;2022-09-09T04:59:01;15.80;99.90
12421;DHT22;6275;43.688;1.408;2022-09-09T05:01:29;15.70;99.90
12421;DHT22;6275;43.688;1.408;2022-09-09T05:03:56;15.70;99.90
12421;DHT22;6275;43.688;1.408;2022-09-09T05:06:23;15.60;99.90
12421;DHT22;6275;43.688;1.408;2022-09-09T05:08:51;15.60;99.90
12421;DHT22;6275;43.688;1.408;2022-09-09T05:11:22;15.50;99.90
12421;DHT22;6275;43.688;1.408;2022-09-09T05:13:53;15.50;99.90
12421;DHT22;6275;43.688;1.408;2022-09-09T05:16:20;15.40;99.90
12421;DHT22;6275;43.688;1.408;2022-09-09T05:18:48;15.40;99.90
12421;DHT22;6275;43.688;1.408;2022-09-09T05:21:16;15.30;99.90
12421;DHT22;6275;43.688;1.408;2022-09-09T05:23:45;15.30;99.90
12421;DHT22;6275;43.688;1.408;2022-09-09T05:26:18;15.30;99.90
12421;DHT22;6275;43.688;1.408;2022-09-09T05:28:46;15.20;99.90
12421;DHT22;6275;43.688;1.408;2022-09-09T05:31:15;15.20;99.90
12421;DHT22;6275;43.688;1.408;2022-09-09T05:33:44;15.10;99.90
12421;DHT22;6275;43.688;1.408;2022-09-09T05:36:14;15.10;99.90
12421;DHT22;6275;43.688;1.408;2022-09-09T05:38:42;15.00;99.90
12421;DHT22;6275;43.688;1.408;2022-09-09T05:41:10;15.10;99.90
12421;DHT22;6275;43.688;1.408;2022-09-09T05:43:38;15.10;99.90
12421;DHT22;6275;43.688;1.408;2022-09-09T05:46:14;15.10;99.90
12421;DHT22;6275;43.688;1.408;2022-09-09T05:48:43;15.20;99.90
12421;DHT22;6275;43.688;1.408;2022-09-09T05:51:12;15.20;99.90
12421;DHT22;6275;43.688;1.408;2022-09-09T05:53:39;15.30;99.90
12421;DHT22;6275;43.688;1.408;2022-09-09T05:56:12;15.30;99.90
12421;DHT22;6275;43.688;1.408;2022-09-09T05:58:41;15.30;99.90
12421;DHT22;6275;43.688;1.408;2022-09-09T06:01:14;15.40;99.90
12421;DHT22;6275;43.688;1.408;2022-09-09T06:03:42;15.40;99.90
12421;DHT22;6275;43.688;1.408;2022-09-09T06:06:24;15.40;99.90
12421;DHT22;6275;43.688;1.408;2022-09-09T06:08:54;15.50;99.90
12421;DHT22;6275;43.688;1.408;2022-09-09T06:11:30;15.50;99.90
12421;DHT22;6275;43.688;1.408;2022-09-09T06:14:00;15.50;99.90
12421;DHT22;6275;43.688;1.408;2022-09-09T06:16:29;15.50;99.90
12421;DHT22;6275;43.688;1.408;2022-09-09T06:18:57;15.50;99.90
12421;DHT22;6275;43.688;1.408;2022-09-09T06:21:25;15.60;99.90
12421;DHT22;6275;43.688;1.408;2022-09-09T06:23:53;15.70;99.90
12421;DHT22;6275;43.688;1.408;2022-09-09T06:26:30;15.70;99.90
12421;DHT22;6275;43.688;1.408;2022-09-09T06:28:58;15.90;99.90
12421;DHT22;6275;43.688;1.408;2022-09-09T06:31:27;16.10;99.90
12421;DHT22;6275;43.688;1.408;2022-09-09T06:33:58;16.20;99.90
12421;DHT22;6275;43.688;1.408;2022-09-09T06:36:27;16.40;99.90
12421;DHT22;6275;43.688;1.408;2022-09-09T06:38:55;16.60;99.90
12421;DHT22;6275;43.688;1.408;2022-09-09T06:41:24;16.70;99.90
12421;DHT22;6275;43.688;1.408;2022-09-09T06:43:52;16.80;99.90
12421;DHT22;6275;43.688;1.408;2022-09-09T06:46:22;17.00;99.90
12421;DHT22;6275;43.688;1.408;2022-09-09T06:48:49;17.30;99.90
12421;DHT22;6275;43.688;1.408;2022-09-09T06:51:18;17.50;99.90
12421;DHT22;6275;43.688;1.408;2022-09-09T06:53:50;17.80;99.90
12421;DHT22;6275;43.688;1.408;2022-09-09T06:56:20;18.00;99.90
12421;DHT22;6275;43.688;1.408;2022-09-09T06:58:52;18.10;99.90
12421;DHT22;6275;43.688;1.408;2022-09-09T07:01:22;18.20;99.90
12421;DHT22;6275;43.688;1.408;2022-09-09T07:03:51;18.20;99.90
12421;DHT22;6275;43.688;1.408;2022-09-09T07:06:22;18.10;99.90
12421;DHT22;6275;43.688;1.408;2022-09-09T07:08:57;18.20;99.90
12421;DHT22;6275;43.688;1.408;2022-09-09T07:11:28;18.40;99.90
12421;DHT22;6275;43.688;1.408;2022-09-09T07:13:57;18.40;99.90
12421;DHT22;6275;43.688;1.408;2022-09-09T07:16:24;18.50;99.90
12421;DHT22;6275;43.688;1.408;2022-09-09T07:18:52;18.60;99.90
12421;DHT22;6275;43.688;1.408;2022-09-09T07:21:22;18.40;99.90
12421;DHT22;6275;43.688;1.408;2022-09-09T07:23:49;18.40;99.90
12421;DHT22;6275;43.688;1.408;2022-09-09T07:26:18;18.50;99.90
12421;DHT22;6275;43.688;1.408;2022-09-09T07:28:48;18.30;99.90
12421;DHT22;6275;43.688;1.408;2022-09-09T07:31:18;18.30;99.90
12421;DHT22;6275;43.688;1.408;2022-09-09T07:33:47;18.30;99.90
12421;DHT22;6275;43.688;1.408;2022-09-09T07:36:16;18.20;99.90
12421;DHT22;6275;43.688;1.408;2022-09-09T07:38:45;18.20;99.90
12421;DHT22;6275;43.688;1.408;2022-09-09T07:41:15;18.30;99.90
12421;DHT22;6275;43.688;1.408;2022-09-09T07:43:45;18.20;99.90
12421;DHT22;6275;43.688;1.408;2022-09-09T07:46:14;18.20;99.90
12421;DHT22;6275;43.688;1.408;2022-09-09T07:48:52;18.10;99.90
12421;DHT22;6275;43.688;1.408;2022-09-09T07:51:30;18.20;99.90
12421;DHT22;6275;43.688;1.408;2022-09-09T07:54:00;18.20;99.90
12421;DHT22;6275;43.688;1.408;2022-09-09T07:56:29;18.30;99.90
12421;DHT22;6275;43.688;1.408;2022-09-09T07:58:56;18.40;99.90
12421;DHT22;6275;43.688;1.408;2022-09-09T08:01:29;18.50;99.90
12421;DHT22;6275;43.688;1.408;2022-09-09T08:04:06;18.80;99.90
12421;DHT22;6275;43.688;1.408;2022-09-09T08:06:39;18.90;99.90
12421;DHT22;6275;43.688;1.408;2022-09-09T08:09:08;19.00;99.90
12421;DHT22;6275;43.688;1.408;2022-09-09T08:11:35;19.30;99.90
12421;DHT22;6275;43.688;1.408;2022-09-09T08:14:06;19.30;99.90
12421;DHT22;6275;43.688;1.408;2022-09-09T08:16:37;19.30;99.90
12421;DHT22;6275;43.688;1.408;2022-09-09T08:19:05;19.50;99.90
12421;DHT22;6275;43.688;1.408;2022-09-09T08:21:37;19.50;99.90
12421;DHT22;6275;43.688;1.408;2022-09-09T08:24:06;19.40;99.90
12421;DHT22;6275;43.688;1.408;2022-09-09T08:26:39;19.50;99.90
12421;DHT22;6275;43.688;1.408;2022-09-09T08:29:09;19.60;99.90
12421;DHT22;6275;43.688;1.408;2022-09-09T08:34:09;19.50;99.90
12421;DHT22;6275;43.688;1.408;2022-09-09T08:36:44;19.40;99.90
12421;DHT22;6275;43.688;1.408;2022-09-09T08:39:16;19.40;99.90
12421;DHT22;6275;43.688;1.408;2022-09-09T08:47:31;19.40;99.90
12421;DHT22;6275;43.688;1.408;2022-09-09T08:50:24;19.20;99.90
12421;DHT22;6275;43.688;1.408;2022-09-09T08:58:23;19.00;99.90
12421;DHT22;6275;43.688;1.408;2022-09-09T09:11:51;19.40;99.90
12421;DHT22;6275;43.688;1.408;2022-09-09T09:14:22;19.40;99.90
12421;DHT22;6275;43.688;1.408;2022-09-09T09:17:04;19.50;99.90
12421;DHT22;6275;43.688;1.408;2022-09-09T09:19:34;19.50;99.90
12421;DHT22;6275;43.688;1.408;2022-09-09T09:27:35;19.80;99.90
12421;DHT22;6275;43.688;1.408;2022-09-09T09:35:51;20.10;99.90
12421;DHT22;6275;43.688;1.408;2022-09-09T12:49:48;22.10;69.50
12421;DHT22;6275;43.688;1.408;2022-09-09T12:52:23;22.00;70.20
12421;DHT22;6275;43.688;1.408;2022-09-09T12:54:51;21.80;70.40
12421;DHT22;6275;43.688;1.408;2022-09-09T12:57:22;21.70;73.20
12421;DHT22;6275;43.688;1.408;2022-09-09T12:59:52;21.50;72.90
12421;DHT22;6275;43.688;1.408;2022-09-09T13:02:26;21.40;76.70
12421;DHT22;6275;43.688;1.408;2022-09-09T13:05:06;20.90;87.80
12421;DHT22;6275;43.688;1.408;2022-09-09T13:07:39;20.30;91.30
12421;DHT22;6275;43.688;1.408;2022-09-09T13:10:11;20.00;96.20
12421;DHT22;6275;43.688;1.408;2022-09-09T13:12:51;19.90;91.70
12421;DHT22;6275;43.688;1.408;2022-09-09T13:15:26;20.10;98.80
12421;DHT22;6275;43.688;1.408;2022-09-09T13:18:01;20.00;99.10
12421;DHT22;6275;43.688;1.408;2022-09-09T13:20:30;19.50;99.90
12421;DHT22;6275;43.688;1.408;2022-09-09T13:22:57;19.00;99.90
12421;DHT22;6275;43.688;1.408;2022-09-09T13:25:27;18.80;99.90
12421;DHT22;6275;43.688;1.408;2022-09-09T13:27:59;18.70;99.90
12421;DHT22;6275;43.688;1.408;2022-09-09T13:30:30;18.70;99.90
12421;DHT22;6275;43.688;1.408;2022-09-09T13:36:01;18.60;99.90
12421;DHT22;6275;43.688;1.408;2022-09-09T13:38:35;18.30;99.90
12421;DHT22;6275;43.688;1.408;2022-09-09T13:41:06;18.40;99.90
12421;DHT22;6275;43.688;1.408;2022-09-09T13:43:42;18.40;99.90
12421;DHT22;6275;43.688;1.408;2022-09-09T13:48:59;19.40;99.90
12421;DHT22;6275;43.688;1.408;2022-09-09T13:51:43;19.60;99.90
12421;DHT22;6275;43.688;1.408;2022-09-09T13:54:13;19.60;99.90
12421;DHT22;6275;43.688;1.408;2022-09-09T13:56:41;19.70;99.90
12421;DHT22;6275;43.688;1.408;2022-09-09T13:59:17;19.70;99.90
12421;DHT22;6275;43.688;1.408;2022-09-09T14:01:46;19.70;99.90
12421;DHT22;6275;43.688;1.408;2022-09-09T14:04:13;19.80;99.90
12421;DHT22;6275;43.688;1.408;2022-09-09T14:06:41;19.80;99.90
12421;DHT22;6275;43.688;1.408;2022-09-09T14:09:11;19.60;99.90
12421;DHT22;6275;43.688;1.408;2022-09-09T14:11:39;19.50;99.90
12421;DHT22;6275;43.688;1.408;2022-09-09T14:14:07;19.40;99.90
12421;DHT22;6275;43.688;1.408;2022-09-09T14:16:34;19.20;99.90
12421;DHT22;6275;43.688;1.408;2022-09-09T14:19:01;19.30;99.90
12421;DHT22;6275;43.688;1.408;2022-09-09T14:21:28;19.20;99.90
12421;DHT22;6275;43.688;1.408;2022-09-09T14:23:55;19.20;99.90
12421;DHT22;6275;43.688;1.408;2022-09-09T14:26:22;19.40;99.90
12421;DHT22;6275;43.688;1.408;2022-09-09T14:28:50;20.30;99.90
12421;DHT22;6275;43.688;1.408;2022-09-09T15:43:38;20.50;99.90
12421;DHT22;6275;43.688;1.408;2022-09-09T15:48:54;20.30;99.90
12421;DHT22;6275;43.688;1.408;2022-09-09T15:51:22;20.00;99.90
12421;DHT22;6275;43.688;1.408;2022-09-09T15:54:13;19.60;99.90
12421;DHT22;6275;43.688;1.408;2022-09-09T15:56:40;19.10;99.90
12421;DHT22;6275;43.688;1.408;2022-09-09T15:59:08;19.00;99.90
12421;DHT22;6275;43.688;1.408;2022-09-09T16:01:35;18.90;99.90
12421;DHT22;6275;43.688;1.408;2022-09-09T16:04:02;19.00;99.90
12421;DHT22;6275;43.688;1.408;2022-09-09T16:06:30;19.10;99.90
12421;DHT22;6275;43.688;1.408;2022-09-09T16:08:58;19.20;99.90
12421;DHT22;6275;43.688;1.408;2022-09-09T16:11:32;19.10;99.90
12421;DHT22;6275;43.688;1.408;2022-09-09T16:14:00;18.90;99.90
12421;DHT22;6275;43.688;1.408;2022-09-09T16:16:29;18.80;99.90
12421;DHT22;6275;43.688;1.408;2022-09-09T16:19:02;18.70;99.90
12421;DHT22;6275;43.688;1.408;2022-09-09T16:21:33;18.70;99.90
12421;DHT22;6275;43.688;1.408;2022-09-09T16:24:03;18.70;99.90
12421;DHT22;6275;43.688;1.408;2022-09-09T16:26:32;18.40;99.90
12421;DHT22;6275;43.688;1.408;2022-09-09T16:29:00;18.20;99.90
12421;DHT22;6275;43.688;1.408;2022-09-09T16:31:28;18.30;99.90
12421;DHT22;6275;43.688;1.408;2022-09-09T16:33:56;18.30;99.90
12421;DHT22;6275;43.688;1.408;2022-09-09T16:36:26;18.20;99.90
12421;DHT22;6275;43.688;1.408;2022-09-09T16:38:58;18.00;99.90
12421;DHT22;6275;43.688;1.408;2022-09-09T16:41:27;17.90;99.90
12421;DHT22;6275;43.688;1.408;2022-09-09T16:43:56;17.60;99.90
12421;DHT22;6275;43.688;1.408;2022-09-09T16:46:23;17.40;99.90
12421;DHT22;6275;43.688;1.408;2022-09-09T16:48:51;17.20;99.90
12421;DHT22;6275;43.688;1.408;2022-09-09T16:53:47;16.80;99.90
12421;DHT22;6275;43.688;1.408;2022-09-09T16:56:20;16.80;99.90
12421;DHT22;6275;43.688;1.408;2022-09-09T16:58:52;16.70;99.90
12421;DHT22;6275;43.688;1.408;2022-09-09T17:01:26;16.60;99.90
12421;DHT22;6275;43.688;1.408;2022-09-09T17:03:57;16.70;99.90
12421;DHT22;6275;43.688;1.408;2022-09-09T17:06:28;16.90;99.90
12421;DHT22;6275;43.688;1.408;2022-09-09T17:08:58;16.90;99.90
12421;DHT22;6275;43.688;1.408;2022-09-09T17:11:26;16.80;99.90
12421;DHT22;6275;43.688;1.408;2022-09-09T17:13:54;16.80;99.90
12421;DHT22;6275;43.688;1.408;2022-09-09T17:16:23;16.70;99.90
12421;DHT22;6275;43.688;1.408;2022-09-09T17:18:51;16.60;99.90
12421;DHT22;6275;43.688;1.408;2022-09-09T17:21:21;16.60;99.90
12421;DHT22;6275;43.688;1.408;2022-09-09T17:23:49;16.60;99.90
12421;DHT22;6275;43.688;1.408;2022-09-09T17:26:18;16.60;99.90
12421;DHT22;6275;43.688;1.408;2022-09-09T17:28:45;16.60;99.90
12421;DHT22;6275;43.688;1.408;2022-09-09T17:31:16;16.50;99.90
12421;DHT22;6275;43.688;1.408;2022-09-09T17:33:49;16.40;99.90
12421;DHT22;6275;43.688;1.408;2022-09-09T17:36:18;16.30;99.90
12421;DHT22;6275;43.688;1.408;2022-09-09T17:38:46;16.30;99.90
12421;DHT22;6275;43.688;1.408;2022-09-09T17:41:25;16.30;99.90
12421;DHT22;6275;43.688;1.408;2022-09-09T17:43:52;16.30;99.90
12421;DHT22;6275;43.688;1.408;2022-09-09T17:46:24;16.30;99.90
12421;DHT22;6275;43.688;1.408;2022-09-09T17:48:56;16.30;99.90
12421;DHT22;6275;43.688;1.408;2022-09-09T17:51:25;16.30;99.90
12421;DHT22;6275;43.688;1.408;2022-09-09T17:53:56;16.30;99.90
12421;DHT22;6275;43.688;1.408;2022-09-09T17:56:26;16.20;99.90
12421;DHT22;6275;43.688;1.408;2022-09-09T17:58:54;16.20;99.90
12421;DHT22;6275;43.688;1.408;2022-09-09T18:01:24;16.10;99.90
12421;DHT22;6275;43.688;1.408;2022-09-09T18:03:54;16.10;99.90
12421;DHT22;6275;43.688;1.408;2022-09-09T18:06:26;16.10;99.90
12421;DHT22;6275;43.688;1.408;2022-09-09T18:08:59;16.10;99.90
12421;DHT22;6275;43.688;1.408;2022-09-09T18:11:32;16.20;99.90
12421;DHT22;6275;43.688;1.408;2022-09-09T18:14:02;16.20;99.90
12421;DHT22;6275;43.688;1.408;2022-09-09T18:16:32;16.20;99.90
12421;DHT22;6275;43.688;1.408;2022-09-09T18:19:06;16.30;99.90
12421;DHT22;6275;43.688;1.408;2022-09-09T18:21:35;16.20;99.90
12421;DHT22;6275;43.688;1.408;2022-09-09T18:24:04;16.20;99.90
12421;DHT22;6275;43.688;1.408;2022-09-09T18:26:33;16.20;99.90
12421;DHT22;6275;43.688;1.408;2022-09-09T18:29:04;16.20;99.90
12421;DHT22;6275;43.688;1.408;2022-09-09T18:31:31;16.10;99.90
12421;DHT22;6275;43.688;1.408;2022-09-09T18:34:01;16.10;99.90
12421;DHT22;6275;43.688;1.408;2022-09-09T18:36:34;16.10;99.90
12421;DHT22;6275;43.688;1.408;2022-09-09T18:39:03;16.10;99.90
12421;DHT22;6275;43.688;1.408;2022-09-09T18:41:39;16.10;99.90
12421;DHT22;6275;43.688;1.408;2022-09-09T18:44:10;16.10;99.90
12421;DHT22;6275;43.688;1.408;2022-09-09T18:46:39;16.10;99.90
12421;DHT22;6275;43.688;1.408;2022-09-09T18:49:07;16.10;99.90
12421;DHT22;6275;43.688;1.408;2022-09-09T18:51:35;16.00;99.90
12421;DHT22;6275;43.688;1.408;2022-09-09T18:54:19;16.00;99.90
12421;DHT22;6275;43.688;1.408;2022-09-09T18:56:47;15.90;99.90
12421;DHT22;6275;43.688;1.408;2022-09-09T18:59:17;15.90;99.90
12421;DHT22;6275;43.688;1.408;2022-09-09T19:01:48;15.80;99.90
12421;DHT22;6275;43.688;1.408;2022-09-09T19:04:17;15.80;99.90
12421;DHT22;6275;43.688;1.408;2022-09-09T19:06:45;15.70;99.90
12421;DHT22;6275;43.688;1.408;2022-09-09T19:09:14;15.70;99.90
12421;DHT22;6275;43.688;1.408;2022-09-09T19:11:42;15.70;99.90
12421;DHT22;6275;43.688;1.408;2022-09-09T19:14:12;15.70;99.90
12421;DHT22;6275;43.688;1.408;2022-09-09T19:16:40;15.70;99.90
12421;DHT22;6275;43.688;1.408;2022-09-09T19:19:19;15.70;99.90
12421;DHT22;6275;43.688;1.408;2022-09-09T19:21:46;15.70;99.90
12421;DHT22;6275;43.688;1.408;2022-09-09T19:24:18;15.70;99.90
12421;DHT22;6275;43.688;1.408;2022-09-09T19:26:48;15.70;99.90
12421;DHT22;6275;43.688;1.408;2022-09-09T19:29:21;15.70;99.90
12421;DHT22;6275;43.688;1.408;2022-09-09T19:31:49;15.70;99.90
12421;DHT22;6275;43.688;1.408;2022-09-09T19:34:36;15.70;99.90
12421;DHT22;6275;43.688;1.408;2022-09-09T19:37:04;15.70;99.90
12421;DHT22;6275;43.688;1.408;2022-09-09T19:39:31;15.70;99.90
12421;DHT22;6275;43.688;1.408;2022-09-09T19:42:00;15.60;99.90
12421;DHT22;6275;43.688;1.408;2022-09-09T19:44:27;15.50;99.90
12421;DHT22;6275;43.688;1.408;2022-09-09T19:46:54;15.50;99.90
12421;DHT22;6275;43.688;1.408;2022-09-09T19:49:21;15.50;99.90
12421;DHT22;6275;43.688;1.408;2022-09-09T19:51:48;15.50;99.90
12421;DHT22;6275;43.688;1.408;2022-09-09T19:54:15;15.40;99.90
12421;DHT22;6275;43.688;1.408;2022-09-09T19:56:43;15.50;99.90
12421;DHT22;6275;43.688;1.408;2022-09-09T19:59:11;15.50;99.90
12421;DHT22;6275;43.688;1.408;2022-09-09T20:01:41;15.50;99.90
12421;DHT22;6275;43.688;1.408;2022-09-09T20:04:11;15.60;99.90
12421;DHT22;6275;43.688;1.408;2022-09-09T20:06:39;15.60;99.90
12421;DHT22;6275;43.688;1.408;2022-09-09T20:09:10;15.60;99.90
12421;DHT22;6275;43.688;1.408;2022-09-09T20:11:37;15.60;99.90
12421;DHT22;6275;43.688;1.408;2022-09-09T20:14:05;15.60;99.90
12421;DHT22;6275;43.688;1.408;2022-09-09T20:16:32;15.60;99.90
12421;DHT22;6275;43.688;1.408;2022-09-09T20:19:01;15.50;99.90
12421;DHT22;6275;43.688;1.408;2022-09-09T20:21:31;15.50;99.90
12421;DHT22;6275;43.688;1.408;2022-09-09T20:24:00;15.50;99.90
12421;DHT22;6275;43.688;1.408;2022-09-09T20:26:28;15.50;99.90
12421;DHT22;6275;43.688;1.408;2022-09-09T20:29:02;15.50;99.90
12421;DHT22;6275;43.688;1.408;2022-09-09T20:31:36;15.40;99.90
12421;DHT22;6275;43.688;1.408;2022-09-09T20:34:08;15.40;99.90
12421;DHT22;6275;43.688;1.408;2022-09-09T20:36:36;15.40;99.90
12421;DHT22;6275;43.688;1.408;2022-09-09T20:39:05;15.40;99.90
12421;DHT22;6275;43.688;1.408;2022-09-09T20:41:37;15.40;99.90
12421;DHT22;6275;43.688;1.408;2022-09-09T20:44:07;15.40;99.90
12421;DHT22;6275;43.688;1.408;2022-09-09T20:46:36;15.40;99.90
12421;DHT22;6275;43.688;1.408;2022-09-09T20:49:05;15.50;99.90
12421;DHT22;6275;43.688;1.408;2022-09-09T20:51:33;15.50;99.90
12421;DHT22;6275;43.688;1.408;2022-09-09T20:54:03;15.50;99.90
12421;DHT22;6275;43.688;1.408;2022-09-09T20:56:33;15.60;99.90
12421;DHT22;6275;43.688;1.408;2022-09-09T20:59:02;15.60;99.90
12421;DHT22;6275;43.688;1.408;2022-09-09T21:01:29;15.70;99.90
12421;DHT22;6275;43.688;1.408;2022-09-09T21:03:56;15.70;99.90
12421;DHT22;6275;43.688;1.408;2022-09-09T21:06:24;15.70;99.90
12421;DHT22;6275;43.688;1.408;2022-09-09T21:08:51;15.70;99.90
12421;DHT22;6275;43.688;1.408;2022-09-09T21:11:18;15.70;99.90
12421;DHT22;6275;43.688;1.408;2022-09-09T21:13:45;15.70;99.90
12421;DHT22;6275;43.688;1.408;2022-09-09T21:16:14;15.70;99.90
12421;DHT22;6275;43.688;1.408;2022-09-09T21:18:43;15.70;99.90
12421;DHT22;6275;43.688;1.408;2022-09-09T21:21:10;15.70;99.90
12421;DHT22;6275;43.688;1.408;2022-09-09T21:23:37;15.70;99.90
12421;DHT22;6275;43.688;1.408;2022-09-09T21:26:04;15.70;99.90
12421;DHT22;6275;43.688;1.408;2022-09-09T21:28:33;15.70;99.90
12421;DHT22;6275;43.688;1.408;2022-09-09T21:31:01;15.80;99.90
12421;DHT22;6275;43.688;1.408;2022-09-09T21:33:29;15.70;99.90
12421;DHT22;6275;43.688;1.408;2022-09-09T21:36:02;15.70;99.90
12421;DHT22;6275;43.688;1.408;2022-09-09T21:38:29;15.70;99.90
12421;DHT22;6275;43.688;1.408;2022-09-09T21:40:57;15.70;99.90
12421;DHT22;6275;43.688;1.408;2022-09-09T21:43:28;15.70;99.90
12421;DHT22;6275;43.688;1.408;2022-09-09T21:45:55;15.70;99.90
12421;DHT22;6275;43.688;1.408;2022-09-09T21:48:22;15.70;99.90
12421;DHT22;6275;43.688;1.408;2022-09-09T21:50:52;15.70;99.90
12421;DHT22;6275;43.688;1.408;2022-09-09T21:53:20;15.70;99.90
12421;DHT22;6275;43.688;1.408;2022-09-09T21:55:48;15.70;99.90
12421;DHT22;6275;43.688;1.408;2022-09-09T21:58:15;15.70;99.90
12421;DHT22;6275;43.688;1.408;2022-09-09T22:00:45;15.70;99.90